Time;durP1;ratioP1;P1;durP2;ratioP2;P2;SDS_P1;SDS_P2;PMS_P1;PMS_P2;Temp;Humidity;BMP_temperature;BMP_pressure;BME280_temperature;BME280_humidity;BME280_pressure;Samples;Min_cycle;Max_cycle;Signal;HPM_P1;HPM_P2
2021/12/27 00:01:38;;;;;;;5.73;3.10;;;5.80;99.90;;;;;;4940599;29;20086;-89
2021/12/27 00:04:28;;;;;;;5.57;3.27;;;5.80;99.90;;;;;;4936557;29;20046;-88
2021/12/27 00:07:01;;;;;;;5.77;3.20;;;5.80;99.90;;;;;;4922298;29;20040;-87
2021/12/27 00:09:35;;;;;;;4.93;2.70;;;5.80;99.90;;;;;;4922343;29;20028;-86
2021/12/27 00:12:29;;;;;;;5.93;3.00;;;5.80;99.90;;;;;;4923468;29;20124;-86
2021/12/27 00:14:58;;;;;;;7.10;2.60;;;5.80;99.90;;;;;;4920252;29;20028;-87
2021/12/27 00:17:29;;;;;;;6.23;3.00;;;5.90;99.90;;;;;;4919446;29;20035;-86
2021/12/27 00:20:00;;;;;;;5.90;2.47;;;5.90;99.90;;;;;;4921452;29;20035;-87
2021/12/27 00:22:35;;;;;;;6.93;2.37;;;6.00;99.90;;;;;;4920443;29;20662;-87
2021/12/27 00:25:15;;;;;;;5.83;2.90;;;6.00;99.90;;;;;;4938039;29;20285;-87
2021/12/27 00:27:44;;;;;;;6.57;2.53;;;6.00;99.90;;;;;;4939249;29;20119;-87
2021/12/27 00:30:15;;;;;;;7.40;2.87;;;6.10;99.90;;;;;;4931299;29;20064;-86
2021/12/27 00:32:44;;;;;;;6.75;3.05;;;6.10;99.90;;;;;;4938929;29;20043;-87
2021/12/27 00:35:18;;;;;;;5.80;3.07;;;6.10;99.90;;;;;;4938033;29;20032;-87
2021/12/27 00:37:50;;;;;;;5.13;2.50;;;6.10;99.90;;;;;;4936964;29;20106;-87
2021/12/27 00:40:16;;;;;;;;;;;6.10;99.90;;;;;;4937554;29;20027;-86
2021/12/27 00:42:42;;;;;;;5.00;2.70;;;6.20;99.90;;;;;;4951300;29;20398;-86
2021/12/27 00:45:09;;;;;;;8.63;3.17;;;6.20;99.90;;;;;;4941928;29;20434;-87
2021/12/27 00:47:37;;;;;;;6.20;2.80;;;6.20;99.90;;;;;;4943038;29;20056;-87
2021/12/27 00:50:07;;;;;;;5.93;3.40;;;6.30;99.90;;;;;;4943092;29;20042;-87
2021/12/27 00:52:41;;;;;;;6.10;2.90;;;6.20;99.90;;;;;;4946049;28;20036;-86
2021/12/27 00:55:10;;;;;;;7.20;3.63;;;6.20;99.90;;;;;;4950307;29;20028;-86
2021/12/27 00:57:39;;;;;;;6.97;3.43;;;6.20;99.90;;;;;;4965898;28;20028;-87
2021/12/27 01:00:11;;;;;;;8.03;3.03;;;6.10;99.90;;;;;;4944384;29;20027;-87
2021/12/27 01:02:37;;;;;;;;;;;6.20;99.90;;;;;;4949788;28;20119;-87
2021/12/27 01:05:07;;;;;;;7.80;3.13;;;6.20;99.90;;;;;;4935490;29;19946;-88
2021/12/27 01:07:38;;;;;;;7.37;3.47;;;6.20;99.90;;;;;;4935132;28;20030;-87
2021/12/27 01:18:04;;;;;;;8.55;3.95;;;6.10;99.90;;;;;;4936301;29;20024;-87
2021/12/27 01:20:36;;;;;;;8.87;3.27;;;6.10;99.90;;;;;;4935548;28;20027;-87
2021/12/27 01:23:10;;;;;;;6.93;3.50;;;6.10;99.90;;;;;;4951944;28;20036;-88
2021/12/27 01:25:54;;;;;;;8.70;3.40;;;6.00;99.90;;;;;;4935680;29;20028;-87
2021/12/27 01:28:20;;;;;;;6.73;3.00;;;5.90;99.90;;;;;;4935673;29;20034;-88
2021/12/27 01:30:52;;;;;;;7.33;3.37;;;5.90;99.90;;;;;;4951084;28;20034;-87
2021/12/27 01:33:22;;;;;;;;;;;5.90;99.90;;;;;;4936237;28;20028;-88
2021/12/27 01:35:51;;;;;;;5.50;3.07;;;5.90;99.90;;;;;;4950948;29;19958;-87
2021/12/27 01:38:17;;;;;;;6.87;3.00;;;5.90;99.90;;;;;;4934025;29;20051;-87
2021/12/27 01:40:46;;;;;;;10.50;2.90;;;5.90;99.90;;;;;;4935435;29;20027;-88
2021/12/27 01:43:15;;;;;;;5.77;2.83;;;5.90;99.90;;;;;;4946402;29;20047;-87
2021/12/27 01:45:51;;;;;;;5.10;2.53;;;5.90;99.90;;;;;;4947977;29;20541;-88
2021/12/27 01:48:22;;;;;;;6.73;2.57;;;5.80;99.90;;;;;;4938934;29;20087;-87
2021/12/27 01:50:55;;;;;;;5.68;2.85;;;5.80;99.90;;;;;;4939406;29;20024;-87
2021/12/27 01:53:24;;;;;;;5.30;2.67;;;5.90;99.90;;;;;;4936315;28;20523;-87
2021/12/27 01:55:52;;;;;;;5.97;2.70;;;5.80;99.90;;;;;;4954315;28;20039;-87
2021/12/27 01:58:19;;;;;;;5.80;2.43;;;5.80;99.90;;;;;;4939849;29;20103;-87
2021/12/27 02:00:48;;;;;;;5.40;2.50;;;5.70;99.90;;;;;;4938358;28;20024;-89
2021/12/27 02:03:16;;;;;;;6.07;2.30;;;5.70;99.90;;;;;;4938285;29;20051;-89
2021/12/27 02:05:42;;;;;;;5.53;2.60;;;5.70;99.90;;;;;;4938754;29;20031;-87
2021/12/27 02:08:11;;;;;;;5.73;2.67;;;5.70;99.90;;;;;;4940475;29;20069;-87
2021/12/27 02:10:39;;;;;;;4.93;1.90;;;5.70;99.90;;;;;;4938157;29;20439;-87
2021/12/27 02:13:05;;;;;;;5.67;2.80;;;5.60;99.90;;;;;;4937791;29;20063;-87
2021/12/27 02:15:31;;;;;;;6.57;2.27;;;5.70;99.90;;;;;;4940161;29;20015;-88
2021/12/27 02:17:57;;;;;;;4.80;2.50;;;5.70;99.90;;;;;;4940815;29;20015;-87
2021/12/27 02:20:26;;;;;;;7.33;2.87;;;5.70;99.90;;;;;;4950778;28;20035;-87
2021/12/27 02:22:55;;;;;;;5.70;2.63;;;5.70;99.90;;;;;;4937592;28;20023;-87
2021/12/27 02:25:21;;;;;;;5.33;2.33;;;5.60;99.90;;;;;;4937149;28;20492;-87
2021/12/27 02:27:47;;;;;;;4.07;2.10;;;5.60;99.90;;;;;;4938758;29;20015;-87
2021/12/27 02:30:19;;;;;;;4.07;2.33;;;5.60;99.90;;;;;;4937306;29;20048;-87
2021/12/27 02:32:52;;;;;;;5.97;2.13;;;5.60;99.90;;;;;;4937196;29;20083;-87
2021/12/27 02:35:23;;;;;;;4.33;2.10;;;5.50;99.90;;;;;;4936393;29;20433;-87
2021/12/27 02:37:49;;;;;;;5.43;2.50;;;5.50;99.90;;;;;;4935543;29;20395;-87
2021/12/27 02:40:15;;;;;;;5.03;1.97;;;5.50;99.90;;;;;;4937121;29;20107;-87
2021/12/27 02:43:03;;;;;;;4.93;2.30;;;5.40;99.90;;;;;;4938893;29;20031;-87
2021/12/27 02:45:31;;;;;;;5.90;3.10;;;5.40;99.90;;;;;;4946072;29;20208;-88
2021/12/27 02:47:57;;;;;;;4.97;1.97;;;5.40;99.90;;;;;;4937083;29;20082;-87
2021/12/27 02:50:24;;;;;;;4.07;1.90;;;5.40;99.90;;;;;;4938025;29;20027;-87
2021/12/27 02:52:49;;;;;;;6.37;2.40;;;5.40;99.90;;;;;;4937134;29;20400;-87
2021/12/27 02:55:16;;;;;;;4.53;2.13;;;5.40;99.90;;;;;;4950131;29;20024;-87
2021/12/27 02:57:44;;;;;;;4.10;1.90;;;5.40;99.90;;;;;;4937019;29;20023;-87
2021/12/27 03:00:20;;;;;;;3.43;1.60;;;5.30;99.90;;;;;;4936495;29;20034;-87
2021/12/27 03:02:48;;;;;;;5.43;2.07;;;5.40;99.90;;;;;;4942856;29;20051;-87
2021/12/27 03:05:19;;;;;;;4.50;2.07;;;5.40;99.90;;;;;;4935067;29;20114;-87
2021/12/27 03:07:47;;;;;;;6.07;2.13;;;5.40;99.90;;;;;;4938195;29;20079;-87
2021/12/27 03:10:15;;;;;;;4.77;2.10;;;5.40;99.90;;;;;;4937828;29;20035;-87
2021/12/27 03:12:43;;;;;;;4.40;1.87;;;5.40;99.90;;;;;;4934315;29;20172;-87
2021/12/27 03:15:10;;;;;;;3.77;1.63;;;5.40;99.90;;;;;;4950958;29;20055;-87
2021/12/27 03:17:37;;;;;;;3.73;1.70;;;5.50;99.90;;;;;;4936524;29;20082;-87
2021/12/27 03:20:07;;;;;;;4.00;1.60;;;5.50;99.90;;;;;;4952294;28;20023;-87
2021/12/27 03:22:34;;;;;;;5.10;2.40;;;5.50;99.90;;;;;;4950341;29;20032;-87
2021/12/27 03:25:00;;;;;;;4.33;1.90;;;5.60;99.90;;;;;;4936777;29;20023;-87
2021/12/27 03:27:26;;;;;;;4.37;2.00;;;5.60;99.90;;;;;;4936331;29;20023;-87
2021/12/27 03:29:52;;;;;;;4.77;2.17;;;5.60;99.90;;;;;;4936249;29;20036;-88
2021/12/27 03:32:20;;;;;;;3.93;1.70;;;5.60;99.90;;;;;;4936443;29;20035;-87
2021/12/27 03:34:54;;;;;;;4.03;1.77;;;5.60;99.90;;;;;;4936243;29;20023;-87
2021/12/27 03:37:21;;;;;;;4.97;2.27;;;5.60;99.90;;;;;;4933675;29;20119;-87
2021/12/27 03:39:47;;;;;;;5.10;1.80;;;5.60;99.90;;;;;;4934585;28;20059;-87
2021/12/27 03:42:15;;;;;;;3.63;1.60;;;5.60;99.90;;;;;;4934454;29;20488;-87
2021/12/27 03:44:40;;;;;;;3.77;1.87;;;5.60;99.90;;;;;;4946722;28;20015;-88
2021/12/27 03:47:06;;;;;;;4.43;2.07;;;5.60;99.90;;;;;;4935761;29;20535;-87
2021/12/27 03:49:32;;;;;;;4.10;1.60;;;5.60;99.90;;;;;;4935609;29;20020;-88
2021/12/27 03:51:57;;;;;;;4.33;1.40;;;5.60;99.90;;;;;;4935713;29;20039;-88
2021/12/27 03:54:23;;;;;;;5.50;2.20;;;5.60;99.90;;;;;;4935928;29;20019;-87
2021/12/27 03:56:48;;;;;;;4.10;1.80;;;5.70;99.90;;;;;;4935666;29;20114;-87
2021/12/27 03:59:36;;;;;;;5.83;1.73;;;5.70;99.90;;;;;;4935857;29;20062;-87
2021/12/27 04:02:04;;;;;;;3.87;1.63;;;5.70;99.90;;;;;;4947882;29;20087;-87
2021/12/27 04:04:30;;;;;;;3.90;1.70;;;5.70;99.90;;;;;;4935105;29;20043;-87
2021/12/27 04:06:56;;;;;;;3.33;1.33;;;5.70;99.90;;;;;;4951603;29;20024;-87
2021/12/27 04:09:22;;;;;;;4.00;1.93;;;5.60;99.90;;;;;;4933588;29;20047;-87
2021/12/27 04:11:47;;;;;;;3.23;1.33;;;5.70;99.90;;;;;;4950482;29;20031;-87
2021/12/27 04:14:13;;;;;;;3.30;1.63;;;5.60;99.90;;;;;;4935590;29;20488;-86
2021/12/27 04:16:39;;;;;;;3.80;1.87;;;5.70;99.90;;;;;;4925498;29;20025;-87
2021/12/27 04:19:04;;;;;;;3.67;1.40;;;5.60;99.90;;;;;;4937138;29;20039;-87
2021/12/27 04:21:30;;;;;;;3.47;1.73;;;5.60;99.90;;;;;;4947132;29;20027;-88
2021/12/27 04:23:56;;;;;;;5.30;1.80;;;5.60;99.90;;;;;;4941731;29;20034;-87
2021/12/27 04:26:22;;;;;;;4.13;1.37;;;5.60;99.90;;;;;;4935251;29;20500;-87
2021/12/27 04:28:49;;;;;;;4.40;1.80;;;5.50;99.90;;;;;;4935797;29;20031;-87
2021/12/27 04:31:16;;;;;;;4.50;1.90;;;5.50;99.90;;;;;;4936516;29;20110;-87
2021/12/27 04:33:41;;;;;;;3.47;1.83;;;5.50;99.90;;;;;;4935918;29;20392;-87
2021/12/27 04:36:07;;;;;;;4.37;1.80;;;5.60;99.90;;;;;;4934963;29;20049;-87
2021/12/27 04:38:33;;;;;;;4.73;1.80;;;5.50;99.90;;;;;;4934726;29;20030;-87
2021/12/27 04:40:59;;;;;;;5.80;1.70;;;5.50;99.90;;;;;;4947972;29;20107;-87
2021/12/27 04:43:26;;;;;;;7.20;1.70;;;5.50;99.90;;;;;;4934277;29;20035;-87
2021/12/27 04:45:53;;;;;;;3.57;1.67;;;5.50;99.90;;;;;;4935443;29;20469;-87
2021/12/27 04:48:20;;;;;;;4.60;1.80;;;5.50;99.90;;;;;;4925248;29;20071;-87
2021/12/27 04:50:46;;;;;;;3.63;1.40;;;5.60;99.90;;;;;;4941108;29;20023;-87
2021/12/27 04:53:12;;;;;;;3.77;1.73;;;5.60;99.90;;;;;;4933312;29;20711;-87
2021/12/27 04:55:38;;;;;;;3.70;1.50;;;5.60;99.90;;;;;;4934439;29;20023;-87
2021/12/27 04:58:08;;;;;;;5.13;1.40;;;5.50;99.90;;;;;;4934306;29;20027;-88
2021/12/27 05:00:33;;;;;;;3.93;1.57;;;5.60;99.90;;;;;;4934057;29;20028;-87
2021/12/27 05:02:59;;;;;;;2.63;1.17;;;5.60;99.90;;;;;;4934347;29;20031;-88
2021/12/27 05:05:26;;;;;;;3.70;1.30;;;5.60;99.90;;;;;;4933944;29;20031;-87
2021/12/27 05:07:52;;;;;;;3.70;1.37;;;5.50;99.90;;;;;;4934499;29;20488;-87
2021/12/27 05:10:18;;;;;;;2.90;1.17;;;5.60;99.90;;;;;;4934543;29;20031;-87
2021/12/27 05:12:44;;;;;;;3.40;1.50;;;5.60;99.90;;;;;;4935800;29;20443;-87
2021/12/27 05:15:10;;;;;;;2.47;1.20;;;5.60;99.90;;;;;;4933577;29;20031;-88
2021/12/27 05:17:36;;;;;;;3.60;1.47;;;5.60;99.90;;;;;;4933676;29;20074;-87
2021/12/27 05:20:05;;;;;;;2.90;1.27;;;5.60;99.90;;;;;;4934267;29;20460;-87
2021/12/27 05:22:31;;;;;;;2.23;1.00;;;5.60;99.90;;;;;;4950515;28;20066;-88
2021/12/27 05:24:57;;;;;;;3.47;1.30;;;5.70;99.90;;;;;;4941180;29;20108;-87
2021/12/27 05:27:23;;;;;;;2.63;1.20;;;5.60;99.90;;;;;;4955933;29;20016;-86
2021/12/27 05:29:49;;;;;;;3.40;1.30;;;5.60;99.90;;;;;;5061385;23;20124;-87
2021/12/27 05:32:26;;;;;;;3.37;1.80;;;5.60;99.90;;;;;;4995480;28;20074;-88
2021/12/27 05:35:14;;;;;;;4.93;1.50;;;5.60;99.90;;;;;;4997570;28;20019;-88
2021/12/27 05:37:54;;;;;;;3.37;1.30;;;5.60;99.90;;;;;;4977509;28;20027;-87
2021/12/27 05:40:35;;;;;;;3.03;1.27;;;5.60;99.90;;;;;;5085868;23;20045;-88
2021/12/27 05:43:14;;;;;;;;;;;;;;;;;;;;;
2021/12/27 05:45:48;;;;;;;3.90;1.50;;;5.50;99.90;;;;;;5015927;28;20041;-88
2021/12/27 05:48:33;;;;;;;3.17;1.10;;;5.50;99.90;;;;;;5030579;28;20030;-88
2021/12/27 05:51:02;;;;;;;4.77;1.50;;;5.60;99.90;;;;;;5000334;28;20073;-88
2021/12/27 05:53:33;;;;;;;3.20;1.50;;;5.50;99.90;;;;;;4993928;28;20094;-87
2021/12/27 05:56:05;;;;;;;4.00;1.80;;;5.50;99.90;;;;;;5009100;28;20083;-89
2021/12/27 05:58:47;;;;;;;4.87;1.80;;;5.50;99.90;;;;;;4990253;28;20026;-88
2021/12/27 06:01:13;;;;;;;5.43;1.83;;;5.50;99.90;;;;;;5001715;28;20411;-89
2021/12/27 06:03:46;;;;;;;3.00;1.60;;;5.50;99.90;;;;;;5006099;28;20030;-89
2021/12/27 06:06:12;;;;;;;3.30;1.50;;;5.40;99.90;;;;;;5009289;28;20030;-88
2021/12/27 06:08:40;;;;;;;5.50;1.70;;;5.30;99.90;;;;;;4994182;28;20371;-89
2021/12/27 06:11:09;;;;;;;2.93;1.37;;;5.40;99.90;;;;;;4994606;28;20038;-87
2021/12/27 06:13:35;;;;;;;3.53;1.30;;;5.40;99.90;;;;;;4991988;28;20034;-89
2021/12/27 06:16:08;;;;;;;3.77;1.50;;;5.30;99.90;;;;;;4994514;28;20177;-88
2021/12/27 06:18:34;;;;;;;3.63;1.37;;;5.30;99.90;;;;;;4995929;28;20086;-89
2021/12/27 06:21:04;;;;;;;3.20;1.47;;;5.20;99.90;;;;;;4989765;28;20270;-88
2021/12/27 06:23:31;;;;;;;3.23;1.33;;;5.20;99.90;;;;;;4993366;28;20031;-88
2021/12/27 06:26:05;;;;;;;3.40;1.37;;;5.10;99.90;;;;;;5007486;28;20096;-89
2021/12/27 06:28:34;;;;;;;3.47;1.60;;;5.10;99.90;;;;;;4996538;28;20061;-89
2021/12/27 06:31:11;;;;;;;4.70;1.53;;;5.00;99.90;;;;;;5002973;28;20042;-89
2021/12/27 06:33:43;;;;;;;3.47;1.30;;;5.00;99.90;;;;;;4999046;28;20042;-89
2021/12/27 06:39:40;;;;;;;4.10;1.37;;;4.90;99.90;;;;;;4979851;28;20061;-88
2021/12/27 06:42:23;;;;;;;3.23;1.17;;;4.90;99.90;;;;;;5010764;28;20039;-89
2021/12/27 06:45:03;;;;;;;4.83;1.37;;;4.80;99.90;;;;;;5000276;28;20019;-89
2021/12/27 06:47:50;;;;;;;3.00;1.60;;;4.80;99.90;;;;;;5015826;28;20065;-89
2021/12/27 06:50:19;;;;;;;3.30;1.17;;;4.70;99.90;;;;;;5000567;28;20030;-88
2021/12/27 06:53:02;;;;;;;2.83;1.30;;;4.70;99.90;;;;;;4995388;28;20023;-88
2021/12/27 06:55:36;;;;;;;3.50;1.40;;;4.70;99.90;;;;;;4998146;28;20030;-88
2021/12/27 06:58:09;;;;;;;3.67;1.50;;;4.60;99.90;;;;;;5000653;28;20018;-88
2021/12/27 07:00:44;;;;;;;3.23;1.37;;;4.60;99.90;;;;;;5029501;23;20058;-88
2021/12/27 07:03:15;;;;;;;4.30;1.43;;;4.50;99.90;;;;;;5010836;28;20058;-89
2021/12/27 07:05:48;;;;;;;4.00;1.70;;;4.50;99.90;;;;;;4997195;28;20149;-89
2021/12/27 07:08:22;;;;;;;3.50;1.40;;;4.40;99.90;;;;;;5013128;28;20023;-88
2021/12/27 07:10:51;;;;;;;6.40;1.90;;;4.50;99.90;;;;;;4982061;28;20031;-89
2021/12/27 07:13:19;;;;;;;3.60;1.77;;;4.40;99.90;;;;;;4978242;28;20439;-88
2021/12/27 07:15:45;;;;;;;3.77;1.60;;;4.40;99.90;;;;;;4977095;28;20463;-88
2021/12/27 07:18:20;;;;;;;4.20;2.30;;;4.40;99.90;;;;;;4991822;28;20031;-89
2021/12/27 07:20:55;;;;;;;4.10;1.93;;;4.40;99.90;;;;;;4976136;28;20099;-88
2021/12/27 07:23:21;;;;;;;4.67;1.80;;;4.40;99.90;;;;;;4976091;28;20015;-88
2021/12/27 07:25:47;;;;;;;4.93;2.17;;;4.30;99.90;;;;;;4978239;28;20035;-88
2021/12/27 07:28:19;;;;;;;4.77;2.27;;;4.30;99.90;;;;;;4972278;28;20031;-88
2021/12/27 07:30:47;;;;;;;6.05;2.30;;;4.40;99.90;;;;;;4966644;28;20504;-89
2021/12/27 07:34:03;;;;;;;5.70;2.43;;;4.40;99.90;;;;;;4986654;28;20062;-89
2021/12/27 07:36:41;;;;;;;6.20;2.47;;;4.40;99.90;;;;;;4984532;28;20023;-89
2021/12/27 07:39:10;;;;;;;4.73;2.13;;;4.40;99.90;;;;;;4973349;28;20067;-87
2021/12/27 07:41:38;;;;;;;6.70;2.43;;;4.40;99.90;;;;;;4977982;28;20476;-87
2021/12/27 07:44:13;;;;;;;5.57;2.63;;;4.40;99.90;;;;;;4990327;28;20023;-89
2021/12/27 07:46:47;;;;;;;5.73;2.47;;;4.50;99.90;;;;;;4987182;28;20498;-87
2021/12/27 07:49:36;;;;;;;4.47;1.83;;;4.50;99.90;;;;;;4982952;28;20023;-89
2021/12/27 07:52:33;;;;;;;6.93;2.60;;;4.60;99.90;;;;;;4972935;28;20070;-87
2021/12/27 07:55:20;;;;;;;;;;;;;;;;;;;;;
2021/12/27 07:58:00;;;;;;;4.00;2.10;;;4.60;99.90;;;;;;4968886;29;20062;-88
2021/12/27 08:00:50;;;;;;;4.90;2.30;;;4.70;99.90;;;;;;4968793;28;20184;-89
2021/12/27 08:03:57;;;;;;;6.30;2.63;;;4.70;99.90;;;;;;4962017;28;20473;-89
2021/12/27 08:07:13;;;;;;;;;;;;;;;;;;;;;
2021/12/27 08:10:14;;;;;;;6.00;2.37;;;4.80;99.90;;;;;;4965101;28;20933;-90
2021/12/27 08:13:24;;;;;;;6.07;2.40;;;4.80;99.90;;;;;;4966808;29;20050;-90
2021/12/27 08:15:58;;;;;;;5.83;2.10;;;4.80;99.90;;;;;;4909792;29;20197;-87
2021/12/27 08:18:56;;;;;;;4.60;2.10;;;4.90;99.90;;;;;;4962986;29;20035;-89
2021/12/27 08:21:31;;;;;;;4.83;2.43;;;4.90;99.90;;;;;;4966635;28;20035;-89
2021/12/27 08:24:18;;;;;;;5.90;2.50;;;5.00;99.90;;;;;;4967389;29;20019;-88
2021/12/27 08:26:57;;;;;;;6.23;2.67;;;5.10;99.90;;;;;;4967616;28;20093;-88
2021/12/27 08:29:50;;;;;;;;;;;;;;;;;;;;;
2021/12/27 08:32:46;;;;;;;6.87;2.77;;;5.10;99.90;;;;;;4977673;28;20070;-89
2021/12/27 08:35:21;;;;;;;5.30;2.97;;;5.10;99.90;;;;;;4992286;28;20090;-88
2021/12/27 08:38:07;;;;;;;5.00;2.70;;;5.20;99.90;;;;;;4989767;28;20050;-90
2021/12/27 08:40:36;;;;;;;4.87;2.33;;;5.20;99.90;;;;;;4977536;28;20035;-89
2021/12/27 08:43:11;;;;;;;4.70;2.50;;;5.20;99.90;;;;;;4991940;28;20180;-88
2021/12/27 08:45:50;;;;;;;6.23;2.40;;;5.30;99.90;;;;;;4971025;28;20028;-88
2021/12/27 08:55:06;;;;;;;6.07;2.80;;;5.70;99.90;;;;;;5009973;28;20048;-90
2021/12/27 09:05:23;;;;;;;4.97;2.38;;;5.80;99.90;;;;;;4944492;28;20024;-89
2021/12/27 09:08:16;;;;;;;;;;;;;;;;;;;;;
2021/12/27 09:13:47;;;;;;;5.93;2.40;;;5.90;99.90;;;;;;5217395;23;20066;-89
2021/12/27 09:16:35;;;;;;;5.80;2.30;;;5.90;99.90;;;;;;4965554;29;20038;-88
2021/12/27 09:24:55;;;;;;;5.37;2.40;;;6.00;99.90;;;;;;5140178;23;20066;-89
2021/12/27 09:27:29;;;;;;;4.53;1.90;;;6.00;99.90;;;;;;4961472;28;20034;-90
2021/12/27 09:29:57;;;;;;;5.27;2.00;;;6.00;99.90;;;;;;4960132;28;20050;-89
2021/12/27 09:32:42;;;;;;;8.60;2.00;;;6.10;99.90;;;;;;4939169;29;20038;-88
2021/12/27 09:35:34;;;;;;;3.93;2.00;;;6.00;99.90;;;;;;4948632;29;20133;-89
2021/12/27 09:38:12;;;;;;;;;;;;;;;;;;;;;
2021/12/27 09:41:03;;;;;;;4.73;1.87;;;6.00;99.90;;;;;;4965339;28;20361;-89
2021/12/27 09:47:50;;;;;;;;;;;;;;;;;;;;;
2021/12/27 09:51:03;;;;;;;4.53;2.13;;;6.20;99.90;;;;;;4925818;29;20340;-89
2021/12/27 09:54:33;;;;;;;13.85;2.70;;;6.10;99.90;;;;;;4902753;29;20024;-90
2021/12/27 09:57:41;;;;;;;10.83;2.20;;;6.20;99.90;;;;;;4877828;29;20041;-89
2021/12/27 10:07:41;;;;;;;5.00;2.00;;;6.50;99.90;;;;;;4870149;29;20111;-90
2021/12/27 10:10:48;;;;;;;4.13;1.80;;;6.50;99.90;;;;;;4835442;29;20156;-90
2021/12/27 10:13:56;;;;;;;4.93;2.23;;;6.50;99.90;;;;;;4830280;29;20050;-91
2021/12/27 10:23:33;;;;;;;5.20;2.80;;;6.80;99.90;;;;;;4989010;28;20086;-89
2021/12/27 10:30:07;;;;;;;5.13;2.13;;;7.10;99.90;;;;;;4926470;29;20039;-91
2021/12/27 10:36:55;;;;;;;4.40;2.17;;;7.30;99.90;;;;;;4959487;29;20035;-90
2021/12/27 10:39:50;;;;;;;3.67;1.40;;;7.40;99.90;;;;;;4920571;28;20039;-89
2021/12/27 10:42:46;;;;;;;3.13;1.43;;;7.50;99.90;;;;;;4958552;29;20166;-89
2021/12/27 10:45:44;;;;;;;4.50;1.87;;;7.50;99.90;;;;;;4961850;29;20036;-87
2021/12/27 10:48:57;;;;;;;3.97;1.80;;;7.60;99.90;;;;;;4957839;29;20039;-90
2021/12/27 10:55:30;;;;;;;3.00;1.57;;;7.70;99.90;;;;;;4916761;29;20035;-90
2021/12/27 11:09:47;;;;;;;;;;;;;;;;;;;;;
2021/12/27 11:12:46;;;;;;;3.83;1.50;;;8.00;99.90;;;;;;5031201;28;20060;-90
2021/12/27 11:15:42;;;;;;;3.33;1.67;;;7.90;99.90;;;;;;5026852;28;20083;-90
2021/12/27 11:18:26;;;;;;;4.77;1.73;;;8.00;99.90;;;;;;5038596;28;20042;-90
2021/12/27 11:21:50;;;;;;;3.30;1.70;;;8.00;99.90;;;;;;5027084;28;20113;-90
2021/12/27 11:25:03;;;;;;;6.10;2.60;;;8.10;99.90;;;;;;4942417;29;20040;-90
2021/12/27 11:31:46;;;;;;;4.07;1.67;;;8.10;99.90;;;;;;5023953;28;20034;-89
2021/12/27 11:34:28;;;;;;;;;;;;;;;;;;;;;
2021/12/27 11:37:26;;;;;;;4.40;1.30;;;8.00;99.90;;;;;;5031706;28;20072;-90
2021/12/27 11:40:08;;;;;;;4.10;2.17;;;7.90;99.90;;;;;;5014180;28;20034;-88
2021/12/27 11:43:09;;;;;;;6.43;2.78;;;8.00;99.90;;;;;;5025852;28;20081;-90
2021/12/27 11:45:39;;;;;;;4.77;2.13;;;7.90;99.90;;;;;;5039148;28;20080;-88
2021/12/27 11:48:45;;;;;;;4.77;2.27;;;8.10;99.90;;;;;;5031637;28;20056;-88
2021/12/27 11:51:53;;;;;;;4.97;1.63;;;8.10;99.90;;;;;;5017544;28;20044;-89
2021/12/27 11:54:30;;;;;;;4.70;2.33;;;8.20;99.90;;;;;;5033356;28;20034;-88
2021/12/27 11:57:12;;;;;;;6.47;2.33;;;8.20;99.90;;;;;;5024485;28;20022;-89
2021/12/27 11:59:42;;;;;;;7.30;2.88;;;8.20;99.90;;;;;;5035578;28;20022;-89
2021/12/27 12:02:27;;;;;;;4.23;1.70;;;8.30;99.90;;;;;;5025025;28;20030;-88
2021/12/27 12:04:58;;;;;;;3.20;1.60;;;8.30;99.90;;;;;;5039128;28;20015;-88
2021/12/27 12:07:34;;;;;;;3.27;1.70;;;8.30;99.90;;;;;;5015113;28;20026;-89
2021/12/27 12:10:13;;;;;;;4.30;1.83;;;8.40;99.90;;;;;;5067624;23;20050;-88
2021/12/27 12:12:39;;;;;;;5.13;2.13;;;8.40;99.90;;;;;;4977499;28;20043;-87
2021/12/27 12:15:06;;;;;;;4.50;1.87;;;8.50;99.90;;;;;;4983028;23;20435;-85
2021/12/27 12:17:44;;;;;;;5.30;2.03;;;8.40;99.90;;;;;;4988009;28;20023;-85
2021/12/27 12:20:28;;;;;;;5.50;1.50;;;8.40;99.90;;;;;;4988305;28;20023;-85
2021/12/27 12:23:07;;;;;;;3.93;1.93;;;8.30;99.90;;;;;;4984997;28;21081;-85
2021/12/27 12:25:34;;;;;;;3.70;1.50;;;8.30;99.90;;;;;;4962464;28;20036;-85
2021/12/27 12:28:03;;;;;;;2.93;1.63;;;8.30;99.90;;;;;;4953248;29;20413;-85
2021/12/27 12:30:50;;;;;;;4.70;2.17;;;8.30;99.90;;;;;;4952746;29;20057;-85
2021/12/27 12:33:21;;;;;;;5.03;2.33;;;8.20;99.90;;;;;;4950157;29;20039;-85
2021/12/27 12:35:48;;;;;;;4.03;2.03;;;8.20;99.90;;;;;;4935902;29;20054;-85
2021/12/27 12:38:21;;;;;;;4.20;1.83;;;8.10;99.90;;;;;;4949119;29;20045;-85
2021/12/27 12:41:05;;;;;;;6.17;2.10;;;8.10;99.90;;;;;;4969759;28;20028;-86
2021/12/27 12:43:39;;;;;;;4.37;2.30;;;8.10;99.90;;;;;;4935846;29;20110;-85
2021/12/27 12:46:24;;;;;;;3.00;1.80;;;8.20;99.90;;;;;;4934344;29;20491;-85
2021/12/27 12:49:10;;;;;;;4.20;1.77;;;8.20;99.90;;;;;;4936251;29;20121;-85
2021/12/27 12:51:41;;;;;;;4.87;1.97;;;8.20;99.90;;;;;;4950736;29;20040;-85
2021/12/27 12:54:30;;;;;;;4.67;1.67;;;8.30;99.90;;;;;;4937090;29;20081;-85
2021/12/27 12:57:17;;;;;;;3.23;1.63;;;8.30;99.90;;;;;;4951952;29;20714;-85
2021/12/27 12:59:45;;;;;;;5.13;1.90;;;8.40;99.90;;;;;;4944086;28;20086;-85
2021/12/27 13:02:15;;;;;;;3.07;1.43;;;8.40;99.90;;;;;;4933320;29;20028;-85
2021/12/27 13:05:15;;;;;;;3.80;1.50;;;8.40;99.90;;;;;;4933161;29;20057;-85
2021/12/27 13:07:50;;;;;;;3.07;1.50;;;8.50;99.90;;;;;;4930637;29;20139;-85
2021/12/27 13:10:27;;;;;;;3.47;1.23;;;8.50;99.90;;;;;;4961646;28;20038;-85
2021/12/27 13:12:58;;;;;;;3.23;1.23;;;8.40;99.90;;;;;;4964913;28;20090;-85
2021/12/27 13:15:49;;;;;;;3.28;1.30;;;8.50;99.90;;;;;;4964822;28;20035;-85
2021/12/27 13:18:17;;;;;;;2.40;1.10;;;8.40;99.90;;;;;;4937345;29;20062;-85
2021/12/27 13:20:45;;;;;;;3.00;1.20;;;8.50;99.90;;;;;;4953545;29;20019;-85
2021/12/27 13:23:12;;;;;;;4.30;1.50;;;8.40;99.90;;;;;;4952089;28;20031;-85
2021/12/27 13:25:41;;;;;;;3.37;1.03;;;8.40;99.90;;;;;;4951398;29;20102;-85
2021/12/27 13:28:19;;;;;;;3.53;1.67;;;8.40;99.90;;;;;;4952176;29;20046;-86
2021/12/27 13:30:49;;;;;;;2.83;1.20;;;8.30;99.90;;;;;;4954169;29;20027;-85
2021/12/27 13:33:15;;;;;;;3.30;1.30;;;8.30;99.90;;;;;;4952808;28;20118;-85
2021/12/27 13:35:41;;;;;;;4.17;1.30;;;8.20;99.90;;;;;;4949124;29;20091;-85
2021/12/27 13:38:29;;;;;;;2.27;0.87;;;8.20;99.90;;;;;;4933212;29;20396;-85
2021/12/27 13:41:05;;;;;;;2.47;1.10;;;8.10;99.90;;;;;;4933885;29;20024;-85
2021/12/27 13:43:32;;;;;;;3.67;1.47;;;8.00;99.90;;;;;;4936136;29;20051;-86
2021/12/27 13:46:19;;;;;;;2.73;1.20;;;8.00;99.90;;;;;;4955668;29;20028;-86
2021/12/27 13:48:45;;;;;;;3.13;1.10;;;8.00;99.90;;;;;;4955744;28;20027;-85
2021/12/27 13:51:16;;;;;;;4.77;1.00;;;7.90;99.90;;;;;;4950794;29;20071;-86
2021/12/27 13:53:52;;;;;;;2.80;0.93;;;7.90;99.90;;;;;;4956520;28;20086;-86
2021/12/27 13:56:17;;;;;;;2.43;0.97;;;7.90;99.90;;;;;;4954379;29;20484;-85
2021/12/27 13:58:45;;;;;;;2.53;1.10;;;7.90;99.90;;;;;;4954884;28;20073;-85
2021/12/27 14:01:14;;;;;;;2.03;0.97;;;7.90;99.90;;;;;;4941111;29;20551;-84
2021/12/27 14:03:40;;;;;;;2.37;1.00;;;7.90;99.90;;;;;;4935034;29;20507;-85
2021/12/27 14:06:08;;;;;;;2.83;1.10;;;7.90;99.90;;;;;;4934755;29;20036;-85
2021/12/27 14:08:34;;;;;;;2.60;0.93;;;7.90;99.90;;;;;;4940153;29;20500;-85
2021/12/27 14:11:10;;;;;;;3.33;1.03;;;7.90;99.90;;;;;;4953290;29;20063;-85
2021/12/27 14:13:51;;;;;;;4.13;1.10;;;7.90;99.90;;;;;;4951651;28;20411;-85
2021/12/27 14:16:38;;;;;;;2.70;1.00;;;7.80;99.90;;;;;;4947037;28;20024;-85
2021/12/27 14:19:14;;;;;;;2.70;1.13;;;7.80;99.90;;;;;;4932828;29;20031;-85
2021/12/27 14:22:00;;;;;;;3.83;1.10;;;7.80;99.90;;;;;;4934126;29;20122;-86
2021/12/27 14:24:35;;;;;;;2.20;1.10;;;7.70;99.90;;;;;;4934245;29;20058;-85
2021/12/27 14:27:03;;;;;;;3.10;1.00;;;7.70;99.90;;;;;;4932678;29;20031;-85
2021/12/27 14:29:30;;;;;;;2.63;0.83;;;7.70;99.90;;;;;;4946257;29;20543;-88
2021/12/27 14:31:59;;;;;;;2.97;1.00;;;7.70;99.90;;;;;;4984014;28;20087;-85
2021/12/27 14:34:39;;;;;;;2.40;0.97;;;7.70;99.90;;;;;;4952147;28;20035;-85
2021/12/27 14:37:06;;;;;;;2.80;1.07;;;7.70;99.90;;;;;;4951197;29;20150;-85
2021/12/27 14:39:32;;;;;;;1.80;0.87;;;7.70;99.90;;;;;;4967783;28;20031;-86
2021/12/27 14:41:58;;;;;;;4.00;1.17;;;7.60;99.90;;;;;;4951200;29;20027;-85
2021/12/27 14:44:24;;;;;;;2.83;1.10;;;7.60;99.90;;;;;;4952286;28;20031;-85
2021/12/27 14:46:50;;;;;;;2.53;0.93;;;7.60;99.90;;;;;;4967272;28;20031;-85
2021/12/27 14:49:15;;;;;;;2.97;1.30;;;7.60;99.90;;;;;;4953767;28;20046;-85
2021/12/27 14:51:41;;;;;;;2.43;1.10;;;7.60;99.90;;;;;;4944812;29;20054;-85
2021/12/27 14:54:06;;;;;;;4.77;1.33;;;7.50;99.90;;;;;;4936738;29;20026;-84
2021/12/27 14:56:32;;;;;;;4.00;1.07;;;7.50;99.90;;;;;;4935447;29;20103;-86
2021/12/27 14:58:58;;;;;;;4.10;1.07;;;7.50;99.90;;;;;;4946487;28;20028;-85
2021/12/27 15:01:25;;;;;;;2.23;1.00;;;7.50;99.90;;;;;;4936614;29;20031;-85
2021/12/27 15:03:50;;;;;;;3.23;1.10;;;7.40;99.90;;;;;;4949899;28;20495;-86
2021/12/27 15:06:16;;;;;;;2.00;0.90;;;7.40;99.90;;;;;;4949855;28;20027;-85
2021/12/27 15:08:52;;;;;;;2.97;1.07;;;7.40;99.90;;;;;;4934809;29;20079;-86